sensor_id;sensor_type;location;lat;lon;timestamp;pressure;altitude;pressure_sealevel;temperature;humidity
13476;BME280;6810;63.824;20.288;2024-01-06T00:00:00;101865.34;;;-19.69;64.98
13476;BME280;6810;63.824;20.288;2024-01-06T00:02:47;101871.94;;;-19.71;65.07
13476;BME280;6810;63.824;20.288;2024-01-06T00:05:34;101876.28;;;-19.70;65.49
13476;BME280;6810;63.824;20.288;2024-01-06T00:08:21;101884.50;;;-19.72;65.30
13476;BME280;6810;63.824;20.288;2024-01-06T00:11:09;101877.78;;;-19.72;65.00
13476;BME280;6810;63.824;20.288;2024-01-06T00:13:56;101884.50;;;-19.72;65.47
13476;BME280;6810;63.824;20.288;2024-01-06T00:16:43;101888.47;;;-19.76;65.07
13476;BME280;6810;63.824;20.288;2024-01-06T00:19:29;101893.66;;;-19.74;65.39
13476;BME280;6810;63.824;20.288;2024-01-06T00:22:17;101894.41;;;-19.75;64.93
13476;BME280;6810;63.824;20.288;2024-01-06T00:25:05;101908.75;;;-19.76;65.45
13476;BME280;6810;63.824;20.288;2024-01-06T00:27:52;101903.19;;;-19.82;65.20
13476;BME280;6810;63.824;20.288;2024-01-06T00:30:39;101919.50;;;-19.78;65.03
13476;BME280;6810;63.824;20.288;2024-01-06T00:33:26;101926.25;;;-19.79;65.05
13476;BME280;6810;63.824;20.288;2024-01-06T00:36:13;101921.94;;;-19.80;64.91
13476;BME280;6810;63.824;20.288;2024-01-06T00:39:00;101906.88;;;-19.88;65.33
13476;BME280;6810;63.824;20.288;2024-01-06T00:41:47;101907.13;;;-19.95;65.38
13476;BME280;6810;63.824;20.288;2024-01-06T00:44:35;101928.44;;;-19.83;65.27
13476;BME280;6810;63.824;20.288;2024-01-06T00:47:22;101925.91;;;-19.83;64.92
13476;BME280;6810;63.824;20.288;2024-01-06T00:50:10;101914.38;;;-19.90;65.05
13476;BME280;6810;63.824;20.288;2024-01-06T00:52:57;101890.94;;;-20.07;65.10
13476;BME280;6810;63.824;20.288;2024-01-06T00:55:43;101932.47;;;-19.85;64.76
13476;BME280;6810;63.824;20.288;2024-01-06T00:58:30;101941.59;;;-19.87;64.99
13476;BME280;6810;63.824;20.288;2024-01-06T01:01:17;101946.66;;;-19.87;65.25
13476;BME280;6810;63.824;20.288;2024-01-06T01:04:04;101934.91;;;-19.97;65.08
13476;BME280;6810;63.824;20.288;2024-01-06T01:06:51;101940.63;;;-19.89;64.89
13476;BME280;6810;63.824;20.288;2024-01-06T01:09:38;101912.91;;;-20.08;64.94
13476;BME280;6810;63.824;20.288;2024-01-06T01:12:25;101942.13;;;-19.91;65.15
13476;BME280;6810;63.824;20.288;2024-01-06T01:15:12;101953.13;;;-19.91;65.32
13476;BME280;6810;63.824;20.288;2024-01-06T01:17:59;101939.84;;;-19.98;65.03
13476;BME280;6810;63.824;20.288;2024-01-06T01:20:46;101964.94;;;-19.91;64.78
13476;BME280;6810;63.824;20.288;2024-01-06T01:23:34;101965.69;;;-19.92;65.21
13476;BME280;6810;63.824;20.288;2024-01-06T01:26:21;101969.00;;;-19.93;65.29
13476;BME280;6810;63.824;20.288;2024-01-06T01:29:08;101897.50;;;-20.31;64.50
13476;BME280;6810;63.824;20.288;2024-01-06T01:31:55;101969.41;;;-19.99;65.13
13476;BME280;6810;63.824;20.288;2024-01-06T01:34:42;101978.13;;;-19.95;64.69
13476;BME280;6810;63.824;20.288;2024-01-06T01:37:29;101979.66;;;-19.97;64.73
13476;BME280;6810;63.824;20.288;2024-01-06T01:40:16;101984.84;;;-19.96;65.19
13476;BME280;6810;63.824;20.288;2024-01-06T01:43:02;101986.38;;;-19.98;65.21
13476;BME280;6810;63.824;20.288;2024-01-06T01:45:56;101998.16;;;-19.98;65.02
13476;BME280;6810;63.824;20.288;2024-01-06T01:48:43;101998.91;;;-19.99;64.98
13476;BME280;6810;63.824;20.288;2024-01-06T01:51:33;101992.94;;;-20.00;64.79
13476;BME280;6810;63.824;20.288;2024-01-06T01:54:21;101999.69;;;-20.00;65.37
13476;BME280;6810;63.824;20.288;2024-01-06T01:57:08;101998.78;;;-20.01;64.90
13476;BME280;6810;63.824;20.288;2024-01-06T01:59:56;102000.31;;;-20.03;64.96
13476;BME280;6810;63.824;20.288;2024-01-06T02:02:43;102007.91;;;-20.03;65.23
13476;BME280;6810;63.824;20.288;2024-01-06T02:05:31;102009.56;;;-20.03;65.23
13476;BME280;6810;63.824;20.288;2024-01-06T02:08:18;102008.31;;;-20.08;65.11
13476;BME280;6810;63.824;20.288;2024-01-06T02:11:05;102012.13;;;-20.03;65.03
13476;BME280;6810;63.824;20.288;2024-01-06T02:13:52;102022.25;;;-20.03;65.04
13476;BME280;6810;63.824;20.288;2024-01-06T02:16:39;101998.34;;;-20.17;65.39
13476;BME280;6810;63.824;20.288;2024-01-06T02:19:26;102002.75;;;-20.14;65.23
13476;BME280;6810;63.824;20.288;2024-01-06T02:22:13;102024.00;;;-20.02;65.44
13476;BME280;6810;63.824;20.288;2024-01-06T02:25:00;102010.72;;;-20.10;65.00
13476;BME280;6810;63.824;20.288;2024-01-06T02:27:47;102030.84;;;-20.01;65.04
13476;BME280;6810;63.824;20.288;2024-01-06T02:30:34;102028.06;;;-20.04;65.32
13476;BME280;6810;63.824;20.288;2024-01-06T02:33:21;102029.84;;;-20.03;64.83
13476;BME280;6810;63.824;20.288;2024-01-06T02:36:08;102042.78;;;-20.00;64.99
13476;BME280;6810;63.824;20.288;2024-01-06T02:38:55;102040.38;;;-19.99;65.03
13476;BME280;6810;63.824;20.288;2024-01-06T02:41:42;102047.19;;;-19.98;65.05
13476;BME280;6810;63.824;20.288;2024-01-06T02:44:28;102047.19;;;-19.98;65.27
13476;BME280;6810;63.824;20.288;2024-01-06T02:47:15;102045.69;;;-19.96;65.09
13476;BME280;6810;63.824;20.288;2024-01-06T02:50:03;102047.47;;;-19.95;64.94
13476;BME280;6810;63.824;20.288;2024-01-06T02:52:50;102051.88;;;-19.92;64.89
13476;BME280;6810;63.824;20.288;2024-01-06T02:55:37;102048.59;;;-19.91;65.19
13476;BME280;6810;63.824;20.288;2024-01-06T02:58:24;102059.78;;;-19.89;64.93
13476;BME280;6810;63.824;20.288;2024-01-06T03:01:11;102054.41;;;-19.92;65.32
13476;BME280;6810;63.824;20.288;2024-01-06T03:03:58;102064.31;;;-19.85;65.21
13476;BME280;6810;63.824;20.288;2024-01-06T03:06:45;102050.63;;;-19.87;64.79
13476;BME280;6810;63.824;20.288;2024-01-06T03:09:32;102065.47;;;-19.82;64.78
13476;BME280;6810;63.824;20.288;2024-01-06T03:12:19;102063.94;;;-19.80;65.04
13476;BME280;6810;63.824;20.288;2024-01-06T03:15:06;102068.25;;;-19.79;65.60
13476;BME280;6810;63.824;20.288;2024-01-06T03:17:53;102072.69;;;-19.76;64.84
13476;BME280;6810;63.824;20.288;2024-01-06T03:20:40;102073.84;;;-19.73;65.41
13476;BME280;6810;63.824;20.288;2024-01-06T03:23:27;102078.13;;;-19.72;65.23
13476;BME280;6810;63.824;20.288;2024-01-06T03:26:14;102088.53;;;-19.69;64.84
13476;BME280;6810;63.824;20.288;2024-01-06T03:29:01;102084.59;;;-19.65;65.23
13476;BME280;6810;63.824;20.288;2024-01-06T03:31:48;102087.25;;;-19.64;65.27
13476;BME280;6810;63.824;20.288;2024-01-06T03:34:35;102091.81;;;-19.60;65.27
13476;BME280;6810;63.824;20.288;2024-01-06T03:37:22;102078.22;;;-19.60;65.28
13476;BME280;6810;63.824;20.288;2024-01-06T03:40:09;102081.19;;;-19.56;65.09
13476;BME280;6810;63.824;20.288;2024-01-06T03:42:56;102090.69;;;-19.53;65.06
13476;BME280;6810;63.824;20.288;2024-01-06T03:45:43;102084.22;;;-19.50;65.14
13476;BME280;6810;63.824;20.288;2024-01-06T03:48:30;102089.53;;;-19.47;65.42
13476;BME280;6810;63.824;20.288;2024-01-06T03:51:17;102086.34;;;-19.44;65.50
13476;BME280;6810;63.824;20.288;2024-01-06T03:54:04;102087.38;;;-19.42;65.07
13476;BME280;6810;63.824;20.288;2024-01-06T03:56:51;102093.56;;;-19.39;65.31
13476;BME280;6810;63.824;20.288;2024-01-06T03:59:38;102097.25;;;-19.35;65.18
13476;BME280;6810;63.824;20.288;2024-01-06T04:02:25;102110.19;;;-19.32;65.28
13476;BME280;6810;63.824;20.288;2024-01-06T04:05:12;102100.41;;;-19.28;65.43
13476;BME280;6810;63.824;20.288;2024-01-06T04:07:59;102105.69;;;-19.25;65.46
13476;BME280;6810;63.824;20.288;2024-01-06T04:10:46;102105.81;;;-19.23;65.54
13476;BME280;6810;63.824;20.288;2024-01-06T04:13:33;102113.06;;;-19.18;65.19
13476;BME280;6810;63.824;20.288;2024-01-06T04:16:20;102097.09;;;-19.27;65.51
13476;BME280;6810;63.824;20.288;2024-01-06T04:19:07;102123.59;;;-19.13;65.43
13476;BME280;6810;63.824;20.288;2024-01-06T04:21:54;102126.50;;;-19.09;65.08
13476;BME280;6810;63.824;20.288;2024-01-06T04:24:41;102122.41;;;-19.07;65.29
13476;BME280;6810;63.824;20.288;2024-01-06T04:27:28;102126.22;;;-19.02;65.65
13476;BME280;6810;63.824;20.288;2024-01-06T04:30:15;102129.88;;;-18.98;65.57
13476;BME280;6810;63.824;20.288;2024-01-06T04:33:02;102133.53;;;-18.95;65.69
13476;BME280;6810;63.824;20.288;2024-01-06T04:35:49;102130.50;;;-18.91;65.37
13476;BME280;6810;63.824;20.288;2024-01-06T04:38:36;102129.84;;;-18.88;65.20
13476;BME280;6810;63.824;20.288;2024-01-06T04:41:23;102094.97;;;-19.01;65.67
13476;BME280;6810;63.824;20.288;2024-01-06T04:44:10;102139.75;;;-18.81;65.38
13476;BME280;6810;63.824;20.288;2024-01-06T04:46:57;102138.31;;;-18.78;65.05
13476;BME280;6810;63.824;20.288;2024-01-06T04:49:44;102142.13;;;-18.73;65.02
13476;BME280;6810;63.824;20.288;2024-01-06T04:52:31;102144.00;;;-18.70;65.29
13476;BME280;6810;63.824;20.288;2024-01-06T04:55:18;102131.44;;;-18.69;65.61
13476;BME280;6810;63.824;20.288;2024-01-06T04:58:05;102142.22;;;-18.61;65.29
13476;BME280;6810;63.824;20.288;2024-01-06T05:00:52;102150.09;;;-18.58;65.85
13476;BME280;6810;63.824;20.288;2024-01-06T05:03:39;102149.69;;;-18.52;65.44
13476;BME280;6810;63.824;20.288;2024-01-06T05:06:26;102156.75;;;-18.48;65.79
13476;BME280;6810;63.824;20.288;2024-01-06T05:09:13;102162.09;;;-18.45;65.74
13476;BME280;6810;63.824;20.288;2024-01-06T05:12:00;102159.78;;;-18.42;65.88
13476;BME280;6810;63.824;20.288;2024-01-06T05:14:47;102158.50;;;-18.37;65.64
13476;BME280;6810;63.824;20.288;2024-01-06T05:17:34;102165.56;;;-18.33;66.14
13476;BME280;6810;63.824;20.288;2024-01-06T05:20:21;102160.88;;;-18.29;65.78
13476;BME280;6810;63.824;20.288;2024-01-06T05:23:08;102166.31;;;-18.24;65.46
13476;BME280;6810;63.824;20.288;2024-01-06T05:25:55;102161.59;;;-18.20;66.03
13476;BME280;6810;63.824;20.288;2024-01-06T05:28:43;102166.00;;;-18.17;65.87
13476;BME280;6810;63.824;20.288;2024-01-06T05:31:30;102169.69;;;-18.14;65.29
13476;BME280;6810;63.824;20.288;2024-01-06T05:34:17;102173.31;;;-18.10;65.82
13476;BME280;6810;63.824;20.288;2024-01-06T05:37:04;102178.03;;;-18.05;65.35
13476;BME280;6810;63.824;20.288;2024-01-06T05:39:51;102180.69;;;-18.03;65.79
13476;BME280;6810;63.824;20.288;2024-01-06T05:42:38;102166.59;;;-18.10;65.92
13476;BME280;6810;63.824;20.288;2024-01-06T05:45:25;102191.44;;;-17.96;66.20
13476;BME280;6810;63.824;20.288;2024-01-06T05:48:12;102205.66;;;-17.88;65.70
13476;BME280;6810;63.824;20.288;2024-01-06T05:50:59;102204.34;;;-17.83;65.82
13476;BME280;6810;63.824;20.288;2024-01-06T05:53:46;102209.66;;;-17.80;65.63
13476;BME280;6810;63.824;20.288;2024-01-06T05:56:33;102209.88;;;-17.77;65.94
13476;BME280;6810;63.824;20.288;2024-01-06T05:59:20;102217.13;;;-17.71;65.46
13476;BME280;6810;63.824;20.288;2024-01-06T06:02:07;102225.13;;;-17.67;65.60
13476;BME280;6810;63.824;20.288;2024-01-06T06:04:54;102160.81;;;-17.97;65.73
13476;BME280;6810;63.824;20.288;2024-01-06T06:07:41;102226.59;;;-17.59;66.40
13476;BME280;6810;63.824;20.288;2024-01-06T06:10:27;102234.47;;;-17.56;65.39
13476;BME280;6810;63.824;20.288;2024-01-06T06:13:14;102232.28;;;-17.51;66.12
13476;BME280;6810;63.824;20.288;2024-01-06T06:16:01;102240.28;;;-17.47;66.00
13476;BME280;6810;63.824;20.288;2024-01-06T06:18:48;102243.13;;;-17.42;66.06
13476;BME280;6810;63.824;20.288;2024-01-06T06:21:35;102241.03;;;-17.36;65.73
13476;BME280;6810;63.824;20.288;2024-01-06T06:24:22;102242.94;;;-17.34;65.72
13476;BME280;6810;63.824;20.288;2024-01-06T06:27:09;102255.25;;;-17.28;66.52
13476;BME280;6810;63.824;20.288;2024-01-06T06:29:56;102246.06;;;-17.26;65.58
13476;BME280;6810;63.824;20.288;2024-01-06T06:32:43;102247.97;;;-17.24;65.80
13476;BME280;6810;63.824;20.288;2024-01-06T06:35:30;102266.25;;;-17.18;66.28
13476;BME280;6810;63.824;20.288;2024-01-06T06:38:17;102256.94;;;-17.17;65.54
13476;BME280;6810;63.824;20.288;2024-01-06T06:41:04;102265.94;;;-17.11;65.75
13476;BME280;6810;63.824;20.288;2024-01-06T06:43:51;102276.47;;;-17.06;66.22
13476;BME280;6810;63.824;20.288;2024-01-06T06:46:38;102283.44;;;-17.04;66.22
13476;BME280;6810;63.824;20.288;2024-01-06T06:49:24;102283.81;;;-16.99;66.34
13476;BME280;6810;63.824;20.288;2024-01-06T06:52:11;102267.28;;;-17.04;65.63
13476;BME280;6810;63.824;20.288;2024-01-06T06:54:58;102285.16;;;-16.93;66.23
13476;BME280;6810;63.824;20.288;2024-01-06T06:57:45;102285.38;;;-16.90;65.92
13476;BME280;6810;63.824;20.288;2024-01-06T07:00:32;102285.72;;;-16.85;66.09
13476;BME280;6810;63.824;20.288;2024-01-06T07:03:20;102270.41;;;-16.97;66.03
13476;BME280;6810;63.824;20.288;2024-01-06T07:06:07;102298.16;;;-16.78;66.08
13476;BME280;6810;63.824;20.288;2024-01-06T07:08:55;102298.06;;;-16.80;66.24
13476;BME280;6810;63.824;20.288;2024-01-06T07:11:42;102260.22;;;-16.97;65.95
13476;BME280;6810;63.824;20.288;2024-01-06T07:14:28;102321.00;;;-16.68;65.88
13476;BME280;6810;63.824;20.288;2024-01-06T07:17:15;102315.06;;;-16.69;66.41
13476;BME280;6810;63.824;20.288;2024-01-06T07:20:02;102335.13;;;-16.62;66.46
13476;BME280;6810;63.824;20.288;2024-01-06T07:22:49;102274.97;;;-16.93;65.71
13476;BME280;6810;63.824;20.288;2024-01-06T07:25:36;102332.00;;;-16.58;66.00
13476;BME280;6810;63.824;20.288;2024-01-06T07:28:23;102339.25;;;-16.52;65.88
13476;BME280;6810;63.824;20.288;2024-01-06T07:31:10;102330.94;;;-16.49;66.45
13476;BME280;6810;63.824;20.288;2024-01-06T07:33:57;102338.81;;;-16.46;66.70
13476;BME280;6810;63.824;20.288;2024-01-06T07:36:45;102338.22;;;-16.42;65.96
13476;BME280;6810;63.824;20.288;2024-01-06T07:39:32;102335.03;;;-16.40;66.37
13476;BME280;6810;63.824;20.288;2024-01-06T07:42:19;102295.00;;;-16.64;66.07
13476;BME280;6810;63.824;20.288;2024-01-06T07:45:06;102344.88;;;-16.33;66.10
13476;BME280;6810;63.824;20.288;2024-01-06T07:47:53;102351.00;;;-16.31;66.28
13476;BME280;6810;63.824;20.288;2024-01-06T07:50:41;102353.78;;;-16.28;66.49
13476;BME280;6810;63.824;20.288;2024-01-06T07:53:28;102349.69;;;-16.26;66.68
13476;BME280;6810;63.824;20.288;2024-01-06T07:56:15;102368.84;;;-16.19;66.84
13476;BME280;6810;63.824;20.288;2024-01-06T07:59:03;102368.97;;;-16.18;66.83
13476;BME280;6810;63.824;20.288;2024-01-06T08:01:50;102376.97;;;-16.13;66.54
13476;BME280;6810;63.824;20.288;2024-01-06T08:04:37;102375.31;;;-16.13;66.79
13476;BME280;6810;63.824;20.288;2024-01-06T08:07:28;102388.53;;;-16.07;66.68
13476;BME280;6810;63.824;20.288;2024-01-06T08:10:14;102361.88;;;-16.22;66.60
13476;BME280;6810;63.824;20.288;2024-01-06T08:13:01;102396.28;;;-16.05;66.29
13476;BME280;6810;63.824;20.288;2024-01-06T08:15:48;102401.94;;;-15.98;66.55
13476;BME280;6810;63.824;20.288;2024-01-06T08:18:35;102398.75;;;-15.95;66.45
13476;BME280;6810;63.824;20.288;2024-01-06T08:21:22;102396.97;;;-15.96;66.39
13476;BME280;6810;63.824;20.288;2024-01-06T08:24:09;102401.75;;;-15.89;66.12
13476;BME280;6810;63.824;20.288;2024-01-06T08:26:56;102407.31;;;-15.83;66.62
13476;BME280;6810;63.824;20.288;2024-01-06T08:29:43;102411.84;;;-15.79;66.38
13476;BME280;6810;63.824;20.288;2024-01-06T08:32:30;102415.31;;;-15.79;66.72
13476;BME280;6810;63.824;20.288;2024-01-06T08:35:17;102412.97;;;-15.76;66.24
13476;BME280;6810;63.824;20.288;2024-01-06T08:38:04;102427.94;;;-15.69;66.97
13476;BME280;6810;63.824;20.288;2024-01-06T08:40:51;102435.84;;;-15.66;66.73
13476;BME280;6810;63.824;20.288;2024-01-06T08:43:38;102436.94;;;-15.62;66.42
13476;BME280;6810;63.824;20.288;2024-01-06T08:46:25;102421.88;;;-15.71;67.03
13476;BME280;6810;63.824;20.288;2024-01-06T08:49:12;102445.97;;;-15.56;66.59
13476;BME280;6810;63.824;20.288;2024-01-06T08:51:59;102443.72;;;-15.51;66.69
13476;BME280;6810;63.824;20.288;2024-01-06T08:54:46;102449.06;;;-15.48;66.93
13476;BME280;6810;63.824;20.288;2024-01-06T08:57:33;102451.94;;;-15.44;66.64
13476;BME280;6810;63.824;20.288;2024-01-06T09:00:20;102452.81;;;-15.43;66.93
13476;BME280;6810;63.824;20.288;2024-01-06T09:03:04;102458.41;;;-15.37;66.98
13476;BME280;6810;63.824;20.288;2024-01-06T09:05:31;102467.13;;;-15.34;66.94
13476;BME280;6810;63.824;20.288;2024-01-06T09:07:58;102458.91;;;-15.30;66.40
13476;BME280;6810;63.824;20.288;2024-01-06T09:10:25;102466.81;;;-15.27;66.60
13476;BME280;6810;63.824;20.288;2024-01-06T09:12:52;102463.56;;;-15.24;66.60
13476;BME280;6810;63.824;20.288;2024-01-06T09:15:19;102470.56;;;-15.22;66.60
13476;BME280;6810;63.824;20.288;2024-01-06T09:17:46;102475.13;;;-15.18;66.48
13476;BME280;6810;63.824;20.288;2024-01-06T09:20:14;102469.34;;;-15.15;67.11
13476;BME280;6810;63.824;20.288;2024-01-06T09:22:41;102470.44;;;-15.12;67.08
13476;BME280;6810;63.824;20.288;2024-01-06T09:25:08;102476.69;;;-15.08;66.80
13476;BME280;6810;63.824;20.288;2024-01-06T09:27:35;102480.22;;;-15.06;66.69
13476;BME280;6810;63.824;20.288;2024-01-06T09:30:02;102477.13;;;-15.02;67.11
13476;BME280;6810;63.824;20.288;2024-01-06T09:32:29;102477.34;;;-14.99;66.70
13476;BME280;6810;63.824;20.288;2024-01-06T09:34:56;102471.09;;;-15.03;66.89
13476;BME280;6810;63.824;20.288;2024-01-06T09:37:23;102478.53;;;-14.94;66.92
13476;BME280;6810;63.824;20.288;2024-01-06T09:39:50;102488.97;;;-14.91;66.79
13476;BME280;6810;63.824;20.288;2024-01-06T09:42:17;102481.88;;;-14.95;67.32
13476;BME280;6810;63.824;20.288;2024-01-06T09:44:45;102493.66;;;-14.86;67.06
13476;BME280;6810;63.824;20.288;2024-01-06T09:47:12;102491.31;;;-14.83;67.11
13476;BME280;6810;63.824;20.288;2024-01-06T09:49:41;102492.38;;;-14.79;67.31
13476;BME280;6810;63.824;20.288;2024-01-06T09:52:14;102487.28;;;-14.79;66.88
13476;BME280;6810;63.824;20.288;2024-01-06T09:54:51;102469.63;;;-14.88;67.22
13476;BME280;6810;63.824;20.288;2024-01-06T09:57:19;102493.81;;;-14.71;67.10
13476;BME280;6810;63.824;20.288;2024-01-06T09:59:47;102501.94;;;-14.65;67.08
13476;BME280;6810;63.824;20.288;2024-01-06T10:02:15;102501.28;;;-14.62;67.19
13476;BME280;6810;63.824;20.288;2024-01-06T10:04:43;102508.38;;;-14.58;66.95
13476;BME280;6810;63.824;20.288;2024-01-06T10:07:11;102495.47;;;-14.60;67.26
13476;BME280;6810;63.824;20.288;2024-01-06T10:09:41;102518.13;;;-14.53;67.06
13476;BME280;6810;63.824;20.288;2024-01-06T10:12:11;102514.13;;;-14.49;67.13
13476;BME280;6810;63.824;20.288;2024-01-06T10:14:38;102517.69;;;-14.47;67.32
13476;BME280;6810;63.824;20.288;2024-01-06T10:17:06;102517.00;;;-14.45;66.80
13476;BME280;6810;63.824;20.288;2024-01-06T10:19:35;102519.88;;;-14.40;67.26
13476;BME280;6810;63.824;20.288;2024-01-06T10:22:03;102498.97;;;-14.46;67.35
13476;BME280;6810;63.824;20.288;2024-01-06T10:24:31;102504.31;;;-14.43;67.26
13476;BME280;6810;63.824;20.288;2024-01-06T10:26:58;102522.09;;;-14.33;67.07
13476;BME280;6810;63.824;20.288;2024-01-06T10:29:26;102517.75;;;-14.34;67.12
13476;BME280;6810;63.824;20.288;2024-01-06T10:31:54;102510.66;;;-14.38;67.20
13476;BME280;6810;63.824;20.288;2024-01-06T10:34:23;102529.41;;;-14.26;67.21
13476;BME280;6810;63.824;20.288;2024-01-06T10:36:50;102524.50;;;-14.23;67.31
13476;BME280;6810;63.824;20.288;2024-01-06T10:39:21;102507.59;;;-14.33;67.40
13476;BME280;6810;63.824;20.288;2024-01-06T10:41:49;102532.56;;;-14.17;67.18
13476;BME280;6810;63.824;20.288;2024-01-06T10:44:17;102526.00;;;-14.14;67.34
13476;BME280;6810;63.824;20.288;2024-01-06T10:46:44;102525.31;;;-14.11;67.24
13476;BME280;6810;63.824;20.288;2024-01-06T10:49:12;102532.31;;;-14.09;67.39
13476;BME280;6810;63.824;20.288;2024-01-06T10:51:39;102540.22;;;-14.06;67.41
13476;BME280;6810;63.824;20.288;2024-01-06T10:54:08;102536.06;;;-14.04;67.42
13476;BME280;6810;63.824;20.288;2024-01-06T10:56:37;102535.41;;;-14.01;67.25
13476;BME280;6810;63.824;20.288;2024-01-06T10:59:08;102542.41;;;-13.99;67.23
13476;BME280;6810;63.824;20.288;2024-01-06T11:01:35;102539.94;;;-13.97;67.44
13476;BME280;6810;63.824;20.288;2024-01-06T11:04:03;102542.50;;;-13.97;67.26
13476;BME280;6810;63.824;20.288;2024-01-06T11:06:32;102544.38;;;-13.95;67.22
13476;BME280;6810;63.824;20.288;2024-01-06T11:09:20;102545.38;;;-13.93;67.33
13476;BME280;6810;63.824;20.288;2024-01-06T11:11:48;102557.38;;;-13.92;67.51
13476;BME280;6810;63.824;20.288;2024-01-06T11:16:47;102560.06;;;-13.90;67.54
13476;BME280;6810;63.824;20.288;2024-01-06T11:22:26;102567.94;;;-13.87;67.33
13476;BME280;6810;63.824;20.288;2024-01-06T11:24:57;102566.28;;;-13.87;67.20
13476;BME280;6810;63.824;20.288;2024-01-06T11:27:30;102568.03;;;-13.86;67.33
13476;BME280;6810;63.824;20.288;2024-01-06T11:29:59;102567.28;;;-13.85;67.35
13476;BME280;6810;63.824;20.288;2024-01-06T11:32:38;102566.38;;;-13.85;67.38
13476;BME280;6810;63.824;20.288;2024-01-06T11:35:12;102574.28;;;-13.82;67.36
13476;BME280;6810;63.824;20.288;2024-01-06T11:43:09;102574.59;;;-13.78;67.41
13476;BME280;6810;63.824;20.288;2024-01-06T11:45:39;102575.50;;;-13.77;67.41
13476;BME280;6810;63.824;20.288;2024-01-06T11:48:10;102580.72;;;-13.76;67.32
13476;BME280;6810;63.824;20.288;2024-01-06T11:50:40;102580.72;;;-13.76;67.63
13476;BME280;6810;63.824;20.288;2024-01-06T11:53:08;102580.81;;;-13.74;67.37
13476;BME280;6810;63.824;20.288;2024-01-06T11:55:39;102583.50;;;-13.73;67.50
13476;BME280;6810;63.824;20.288;2024-01-06T11:58:06;102586.16;;;-13.71;67.32
13476;BME280;6810;63.824;20.288;2024-01-06T12:00:34;102592.28;;;-13.69;67.43
13476;BME280;6810;63.824;20.288;2024-01-06T12:03:04;102604.19;;;-13.70;67.60
13476;BME280;6810;63.824;20.288;2024-01-06T12:05:31;102598.28;;;-13.69;67.50
13476;BME280;6810;63.824;20.288;2024-01-06T12:08:00;102599.16;;;-13.68;67.44
13476;BME280;6810;63.824;20.288;2024-01-06T12:10:28;102596.72;;;-13.67;67.52
13476;BME280;6810;63.824;20.288;2024-01-06T12:12:59;102601.84;;;-13.67;67.49
13476;BME280;6810;63.824;20.288;2024-01-06T12:15:31;102546.72;;;-13.98;66.92
13476;BME280;6810;63.824;20.288;2024-01-06T12:17:59;102595.91;;;-13.66;67.49
13476;BME280;6810;63.824;20.288;2024-01-06T12:20:29;102596.81;;;-13.65;67.50
13476;BME280;6810;63.824;20.288;2024-01-06T12:22:56;102601.16;;;-13.64;67.56
13476;BME280;6810;63.824;20.288;2024-01-06T12:25:24;102602.75;;;-13.66;67.00
13476;BME280;6810;63.824;20.288;2024-01-06T12:27:52;102601.94;;;-13.65;67.26
13476;BME280;6810;63.824;20.288;2024-01-06T12:30:23;102580.31;;;-13.82;67.78
13476;BME280;6810;63.824;20.288;2024-01-06T12:32:51;102606.16;;;-13.66;67.55
13476;BME280;6810;63.824;20.288;2024-01-06T12:35:21;102610.53;;;-13.65;67.58
13476;BME280;6810;63.824;20.288;2024-01-06T12:37:51;102617.41;;;-13.64;67.46
13476;BME280;6810;63.824;20.288;2024-01-06T12:40:19;102614.84;;;-13.64;67.36
13476;BME280;6810;63.824;20.288;2024-01-06T12:42:47;102617.41;;;-13.64;67.67
13476;BME280;6810;63.824;20.288;2024-01-06T12:45:14;102622.66;;;-13.62;67.51
13476;BME280;6810;63.824;20.288;2024-01-06T12:47:43;102630.22;;;-13.64;67.59
13476;BME280;6810;63.824;20.288;2024-01-06T12:50:10;102626.09;;;-13.62;67.69
13476;BME280;6810;63.824;20.288;2024-01-06T12:52:37;102627.78;;;-13.62;67.62
13476;BME280;6810;63.824;20.288;2024-01-06T12:55:06;102632.09;;;-13.61;67.65
13476;BME280;6810;63.824;20.288;2024-01-06T12:57:35;102616.22;;;-13.69;67.37
13476;BME280;6810;63.824;20.288;2024-01-06T13:00:02;102629.44;;;-13.63;67.18
13476;BME280;6810;63.824;20.288;2024-01-06T13:02:30;102628.66;;;-13.62;67.83
13476;BME280;6810;63.824;20.288;2024-01-06T13:04:57;102625.09;;;-13.64;67.70
13476;BME280;6810;63.824;20.288;2024-01-06T13:07:24;102632.09;;;-13.61;67.63
13476;BME280;6810;63.824;20.288;2024-01-06T13:09:52;102632.09;;;-13.61;67.84
13476;BME280;6810;63.824;20.288;2024-01-06T13:12:19;102620.47;;;-13.69;67.88
13476;BME280;6810;63.824;20.288;2024-01-06T13:14:46;102639.69;;;-13.63;67.42
13476;BME280;6810;63.824;20.288;2024-01-06T13:17:14;102628.47;;;-13.65;67.72
13476;BME280;6810;63.824;20.288;2024-01-06T13:19:41;102644.91;;;-13.61;67.76
13476;BME280;6810;63.824;20.288;2024-01-06T13:22:08;102650.94;;;-13.61;67.72
13476;BME280;6810;63.824;20.288;2024-01-06T13:24:35;102653.50;;;-13.61;67.51
13476;BME280;6810;63.824;20.288;2024-01-06T13:27:03;102653.28;;;-13.64;67.87
13476;BME280;6810;63.824;20.288;2024-01-06T13:29:31;102662.09;;;-13.60;67.72
13476;BME280;6810;63.824;20.288;2024-01-06T13:31:58;102658.53;;;-13.62;67.64
13476;BME280;6810;63.824;20.288;2024-01-06T13:34:26;102671.44;;;-13.61;67.66
13476;BME280;6810;63.824;20.288;2024-01-06T13:36:54;102666.31;;;-13.61;67.62
13476;BME280;6810;63.824;20.288;2024-01-06T13:39:23;102673.09;;;-13.61;67.80
13476;BME280;6810;63.824;20.288;2024-01-06T13:41:51;102638.31;;;-13.82;67.47
13476;BME280;6810;63.824;20.288;2024-01-06T13:44:18;102670.44;;;-13.63;67.64
13476;BME280;6810;63.824;20.288;2024-01-06T13:46:45;102675.56;;;-13.63;67.49
13476;BME280;6810;63.824;20.288;2024-01-06T13:49:13;102682.38;;;-13.63;67.33
13476;BME280;6810;63.824;20.288;2024-01-06T13:51:40;102680.78;;;-13.61;67.77
13476;BME280;6810;63.824;20.288;2024-01-06T13:54:08;102685.03;;;-13.62;67.66
13476;BME280;6810;63.824;20.288;2024-01-06T13:56:36;102688.38;;;-13.63;67.58